createdAt,value
2022-11-05T00:00:35.174Z,10.23
2022-11-05T00:03:20.605Z,10.21
2022-11-05T00:06:07.978Z,10.17
2022-11-05T00:08:53.862Z,10.15
2022-11-05T00:11:41.120Z,10.16
2022-11-05T00:14:26.765Z,10.04
2022-11-05T00:16:53.628Z,10.10
2022-11-05T00:19:20.766Z,10.01
2022-11-05T00:22:06.257Z,9.97
2022-11-05T00:24:51.519Z,9.94
2022-11-05T00:27:18.378Z,9.97
2022-11-05T00:29:45.175Z,9.87
2022-11-05T00:32:11.993Z,9.82
2022-11-05T00:34:38.897Z,9.72
2022-11-05T00:37:05.789Z,9.61
2022-11-05T00:39:32.622Z,9.62
2022-11-05T00:42:17.980Z,9.51
2022-11-05T00:45:05.082Z,9.51
2022-11-05T00:47:55.859Z,9.40
2022-11-05T00:50:23.206Z,9.33
2022-11-05T00:52:57.275Z,9.29
2022-11-05T00:55:33.449Z,9.31
2022-11-05T00:58:01.882Z,9.26
2022-11-05T01:00:30.510Z,9.24
2022-11-05T01:02:59.256Z,9.26
2022-11-05T01:05:26.272Z,9.24
2022-11-05T01:07:53.713Z,9.19
2022-11-05T01:10:30.927Z,9.10
2022-11-05T01:12:57.811Z,9.14
2022-11-05T01:15:24.820Z,9.04
2022-11-05T01:17:52.391Z,9.06
2022-11-05T01:20:19.388Z,9.00
2022-11-05T01:22:46.317Z,8.96
2022-11-05T01:25:13.182Z,8.93
2022-11-05T01:27:40.170Z,8.90
2022-11-05T01:30:08.720Z,8.89
2022-11-05T01:32:36.446Z,8.85
2022-11-05T01:35:08.264Z,8.79
2022-11-05T01:37:35.542Z,8.87
2022-11-05T01:40:03.443Z,8.85
2022-11-05T01:42:33.547Z,8.81
2022-11-05T01:45:07.569Z,8.79
2022-11-05T01:47:48.107Z,8.81
2022-11-05T01:50:25.096Z,8.74
2022-11-05T01:52:56.402Z,8.84
2022-11-05T01:55:27.027Z,8.81
2022-11-05T01:57:54.992Z,8.75
2022-11-05T02:00:21.809Z,8.75
2022-11-05T02:02:48.787Z,8.75
2022-11-05T02:05:15.994Z,8.75
2022-11-05T02:07:45.294Z,8.78
2022-11-05T02:10:14.015Z,8.80
2022-11-05T02:12:43.905Z,8.80
2022-11-05T02:15:24.441Z,8.81
2022-11-05T02:18:22.470Z,8.76
2022-11-05T02:21:22.263Z,8.71
2022-11-05T02:24:30.535Z,8.74
2022-11-05T02:27:19.100Z,8.72
2022-11-05T02:30:07.760Z,8.66
2022-11-05T02:32:58.380Z,8.64
2022-11-05T02:35:34.147Z,8.56
2022-11-05T02:38:15.731Z,8.58
2022-11-05T02:40:46.922Z,8.60
2022-11-05T02:43:24.990Z,8.57
2022-11-05T02:46:31.928Z,8.58
2022-11-05T02:49:22.347Z,8.62
2022-11-05T02:51:58.289Z,8.59
2022-11-05T02:54:50.457Z,8.58
2022-11-05T02:57:19.548Z,8.56
2022-11-05T02:59:46.876Z,8.55
2022-11-05T03:02:14.116Z,8.50
2022-11-05T03:04:41.403Z,8.52
2022-11-05T03:07:23.120Z,8.52
2022-11-05T03:10:05.865Z,8.55
2022-11-05T03:12:43.666Z,8.47
2022-11-05T03:15:13.396Z,8.53
2022-11-05T03:17:49.102Z,8.50
2022-11-05T03:20:15.919Z,8.56
2022-11-05T03:22:47.973Z,8.49
2022-11-05T03:25:19.590Z,8.51
2022-11-05T03:27:48.957Z,8.51
2022-11-05T03:30:18.581Z,8.54
2022-11-05T03:32:57.162Z,8.56
2022-11-05T03:35:30.924Z,8.53
2022-11-05T03:38:04.085Z,8.54
2022-11-05T03:40:36.165Z,8.57
2022-11-05T03:43:07.337Z,8.54
2022-11-05T03:45:57.836Z,8.50
2022-11-05T03:48:30.802Z,8.51
2022-11-05T03:51:08.902Z,8.48
2022-11-05T03:53:41.929Z,8.50
2022-11-05T03:56:24.165Z,8.50
2022-11-05T03:58:56.060Z,8.48
2022-11-05T04:01:25.925Z,8.48
2022-11-05T04:03:52.902Z,8.51
2022-11-05T04:06:38.498Z,8.54
2022-11-05T04:09:24.037Z,8.62
2022-11-05T04:12:09.570Z,8.64
2022-11-05T04:14:36.358Z,8.58
2022-11-05T04:17:11.955Z,8.67
2022-11-05T04:19:59.239Z,8.64
2022-11-05T04:22:47.205Z,8.67
2022-11-05T04:25:15.661Z,8.60
2022-11-05T04:27:42.688Z,8.64
2022-11-05T04:30:19.994Z,8.58
2022-11-05T04:33:02.711Z,8.57
2022-11-05T04:35:40.935Z,8.58
2022-11-05T04:38:12.557Z,8.57
2022-11-05T04:40:39.401Z,8.56
2022-11-05T04:43:13.620Z,8.52
2022-11-05T04:45:41.885Z,8.47
2022-11-05T04:48:08.876Z,8.46
2022-11-05T04:50:35.768Z,8.47
2022-11-05T04:53:02.776Z,8.47
2022-11-05T04:55:29.655Z,8.46
2022-11-05T04:57:56.666Z,8.49
2022-11-05T05:00:24.050Z,8.41
2022-11-05T05:02:50.962Z,8.45
2022-11-05T05:05:18.069Z,8.47
2022-11-05T05:07:44.956Z,8.49
2022-11-05T05:10:12.686Z,8.50
2022-11-05T05:12:39.718Z,8.50
2022-11-05T05:15:07.075Z,8.55
2022-11-05T05:17:34.160Z,8.47
2022-11-05T05:20:20.920Z,8.58
2022-11-05T05:22:55.092Z,8.54
2022-11-05T05:25:22.575Z,8.49
2022-11-05T05:27:49.444Z,8.57
2022-11-05T05:30:16.518Z,8.54
2022-11-05T05:32:43.595Z,8.50
2022-11-05T05:35:10.613Z,8.52
2022-11-05T05:37:37.383Z,8.50
2022-11-05T05:40:04.658Z,8.51
2022-11-05T05:42:31.459Z,8.50
2022-11-05T05:44:58.233Z,8.44
2022-11-05T05:47:25.088Z,8.40
2022-11-05T05:49:52.240Z,8.39
2022-11-05T05:52:19.358Z,8.42
2022-11-05T05:54:46.148Z,8.41
2022-11-05T05:57:12.986Z,8.38
2022-11-05T05:59:41.640Z,8.38
2022-11-05T06:02:08.744Z,8.37
2022-11-05T06:04:37.029Z,8.37
2022-11-05T06:07:03.902Z,8.39
2022-11-05T06:09:30.906Z,8.41
2022-11-05T06:11:57.796Z,8.43
2022-11-05T06:14:24.682Z,8.45
2022-11-05T06:16:51.468Z,8.46
2022-11-05T06:19:18.473Z,8.47
2022-11-05T06:21:45.348Z,8.47
2022-11-05T06:24:12.174Z,8.45
2022-11-05T06:26:42.843Z,8.46
2022-11-05T06:29:10.639Z,8.49
2022-11-05T06:31:37.466Z,8.48
2022-11-05T06:34:04.280Z,8.48
2022-11-05T06:36:31.108Z,8.50
2022-11-05T06:38:57.902Z,8.54
2022-11-05T06:41:24.764Z,8.55
2022-11-05T06:43:51.754Z,8.52
2022-11-05T06:46:18.681Z,8.52
2022-11-05T06:48:45.736Z,8.59
2022-11-05T06:51:13.233Z,8.58
2022-11-05T06:53:40.176Z,8.66
2022-11-05T06:56:07.886Z,8.66
2022-11-05T06:58:34.905Z,8.71
2022-11-05T07:01:08.617Z,8.69
2022-11-05T07:03:37.314Z,8.63
2022-11-05T07:06:04.819Z,8.67
2022-11-05T07:08:33.071Z,8.71
2022-11-05T07:11:00.280Z,8.74
2022-11-05T07:13:27.210Z,8.77
2022-11-05T07:15:54.204Z,8.82
2022-11-05T07:18:21.380Z,8.86
2022-11-05T07:20:49.194Z,8.93
2022-11-05T07:23:16.309Z,8.97
2022-11-05T07:25:43.388Z,8.99
2022-11-05T07:28:11.106Z,9.01
2022-11-05T07:30:38.281Z,9.10
2022-11-05T07:33:05.728Z,9.10
2022-11-05T07:35:32.598Z,9.16
2022-11-05T07:37:59.800Z,9.18
2022-11-05T07:40:28.162Z,9.19
2022-11-05T07:43:00.091Z,9.22
2022-11-05T07:45:28.460Z,9.22
2022-11-05T07:47:56.493Z,9.21
2022-11-05T07:50:25.099Z,9.23
2022-11-05T07:52:52.318Z,9.30
2022-11-05T07:55:20.382Z,9.24
2022-11-05T07:57:49.361Z,9.25
2022-11-05T08:00:21.597Z,9.26
2022-11-05T08:03:08.749Z,9.29
2022-11-05T08:05:38.096Z,9.34
2022-11-05T08:08:07.173Z,9.24
2022-11-05T08:10:34.773Z,9.28
2022-11-05T08:13:02.139Z,9.26
2022-11-05T08:15:29.145Z,9.29
2022-11-05T08:18:10.043Z,9.34
2022-11-05T08:20:37.376Z,9.35
2022-11-05T08:23:04.897Z,9.36
2022-11-05T08:25:31.829Z,9.40
2022-11-05T08:28:00.803Z,9.44
2022-11-05T08:30:28.252Z,9.53
2022-11-05T08:32:59.992Z,9.57
2022-11-05T08:35:27.690Z,9.64
2022-11-05T08:37:58.294Z,9.72
2022-11-05T08:40:26.146Z,9.73
2022-11-05T08:42:53.132Z,9.78
2022-11-05T08:45:19.968Z,9.72
2022-11-05T08:47:46.898Z,9.83
2022-11-05T08:50:13.693Z,9.89
2022-11-05T08:52:41.089Z,9.93
2022-11-05T08:55:08.403Z,9.97
2022-11-05T08:57:35.234Z,10.10
2022-11-05T09:00:02.085Z,10.19
2022-11-05T09:02:29.693Z,10.18
2022-11-05T09:04:56.505Z,10.23
2022-11-05T09:07:23.312Z,10.26
2022-11-05T09:09:50.128Z,10.27
2022-11-05T09:12:17.268Z,10.30
2022-11-05T09:14:44.136Z,10.33
2022-11-05T09:17:21.098Z,10.28
2022-11-05T09:19:49.699Z,10.41
2022-11-05T09:22:16.669Z,10.40
2022-11-05T09:24:43.633Z,10.43
2022-11-05T09:27:11.901Z,10.46
2022-11-05T09:29:39.601Z,10.45
2022-11-05T09:32:06.898Z,10.52
2022-11-05T09:34:33.760Z,10.51
2022-11-05T09:37:00.698Z,10.52
2022-11-05T09:39:27.648Z,10.44
2022-11-05T09:41:57.531Z,10.43
2022-11-05T09:44:27.151Z,10.44
2022-11-05T09:47:00.479Z,10.44
2022-11-05T09:49:39.883Z,10.52
2022-11-05T09:52:13.932Z,10.56
2022-11-05T09:54:40.836Z,10.62
2022-11-05T09:57:13.472Z,10.67
2022-11-05T09:59:54.738Z,10.72
2022-11-05T10:02:24.580Z,10.76
2022-11-05T10:04:54.348Z,10.80
2022-11-05T10:07:23.806Z,10.91
2022-11-05T10:10:03.213Z,11.01
2022-11-05T10:12:39.581Z,11.09
2022-11-05T10:15:16.085Z,11.22
2022-11-05T10:17:47.854Z,11.31
2022-11-05T10:20:30.875Z,11.45
2022-11-05T10:23:10.135Z,11.41
2022-11-05T10:25:40.258Z,11.47
2022-11-05T10:28:09.689Z,11.48
2022-11-05T10:30:36.974Z,11.51
2022-11-05T10:33:05.276Z,11.63
2022-11-05T10:35:33.631Z,11.68
2022-11-05T10:38:01.584Z,11.82
2022-11-05T10:40:31.702Z,11.92
2022-11-05T10:43:15.873Z,11.97
2022-11-05T10:45:52.801Z,12.07
2022-11-05T10:48:43.398Z,12.09
2022-11-05T10:51:11.095Z,12.15
2022-11-05T10:53:41.182Z,12.18
2022-11-05T10:56:40.784Z,12.16
2022-11-05T10:59:21.502Z,12.30
2022-11-05T11:01:56.401Z,12.20
2022-11-05T11:04:25.232Z,12.22
2022-11-05T11:06:54.805Z,12.07
2022-11-05T11:09:23.294Z,12.07
2022-11-05T11:12:12.417Z,12.03
2022-11-05T11:14:39.876Z,12.24
2022-11-05T11:17:26.938Z,12.40
2022-11-05T11:20:24.543Z,12.55
2022-11-05T11:23:16.449Z,12.59
2022-11-05T11:25:48.177Z,12.65
2022-11-05T11:28:33.716Z,12.72
2022-11-05T11:31:22.212Z,12.82
2022-11-05T11:33:52.177Z,12.90
2022-11-05T11:36:25.284Z,13.05
2022-11-05T11:38:59.437Z,13.09
2022-11-05T11:41:41.843Z,13.09
2022-11-05T11:44:16.540Z,13.17
2022-11-05T11:46:54.863Z,13.08
2022-11-05T11:49:49.436Z,13.01
2022-11-05T11:52:23.983Z,13.01
2022-11-05T11:54:52.107Z,13.02
2022-11-05T11:57:29.486Z,13.00
2022-11-05T12:00:12.899Z,12.98
2022-11-05T12:02:48.677Z,13.15
2022-11-05T12:05:33.960Z,13.17
2022-11-05T12:08:10.240Z,13.08
2022-11-05T12:10:47.954Z,13.09
2022-11-05T12:13:20.964Z,13.14
2022-11-05T12:15:47.659Z,13.20
2022-11-05T12:18:30.269Z,13.08
2022-11-05T12:21:00.010Z,13.08
2022-11-05T12:23:38.525Z,13.06
2022-11-05T12:26:27.855Z,13.07
2022-11-05T12:29:22.307Z,13.20
2022-11-05T12:32:24.677Z,13.04
2022-11-05T12:35:07.709Z,13.09
2022-11-05T12:37:47.556Z,13.07
2022-11-05T12:40:32.931Z,13.03
2022-11-05T12:43:17.015Z,12.85
2022-11-05T12:45:56.012Z,12.86
2022-11-05T12:48:59.540Z,12.82
2022-11-05T12:51:56.635Z,12.84
2022-11-05T12:54:33.165Z,12.86
2022-11-05T12:57:03.427Z,12.74
2022-11-05T12:59:33.382Z,12.83
2022-11-05T13:02:22.674Z,12.67
2022-11-05T13:05:06.981Z,12.66
2022-11-05T13:07:37.857Z,12.63
2022-11-05T13:10:14.303Z,12.58
2022-11-05T13:12:42.267Z,12.55
2022-11-05T13:15:29.144Z,12.44
2022-11-05T13:18:02.270Z,12.53
2022-11-05T13:20:32.412Z,12.49
2022-11-05T13:23:29.021Z,12.52
2022-11-05T13:26:03.110Z,12.48
2022-11-05T13:28:37.019Z,12.55
2022-11-05T13:31:08.253Z,12.55
2022-11-05T13:33:38.237Z,12.49
2022-11-05T13:36:39.099Z,12.51
2022-11-05T13:39:14.703Z,12.47
2022-11-05T13:42:17.425Z,12.45
2022-11-05T13:45:02.756Z,12.48
2022-11-05T13:47:51.669Z,12.47
2022-11-05T13:50:37.138Z,12.49
2022-11-05T13:53:10.025Z,12.48
2022-11-05T13:56:11.115Z,12.36
2022-11-05T13:59:10.452Z,12.39
2022-11-05T14:01:59.096Z,12.26
2022-11-05T14:04:35.221Z,12.25
2022-11-05T14:07:10.479Z,12.25
2022-11-05T14:09:38.321Z,12.24
2022-11-05T14:12:08.338Z,12.18
2022-11-05T14:14:45.125Z,12.09
2022-11-05T14:17:21.452Z,12.02
2022-11-05T14:20:06.650Z,12.02
2022-11-05T14:22:33.413Z,11.97
2022-11-05T14:25:01.733Z,11.96
2022-11-05T14:27:28.676Z,11.92
2022-11-05T14:29:55.911Z,11.93
2022-11-05T14:32:25.582Z,11.89
2022-11-05T14:35:04.386Z,11.88
2022-11-05T14:37:40.093Z,11.87
2022-11-05T14:40:36.471Z,11.87
2022-11-05T14:43:22.107Z,11.81
2022-11-05T14:46:02.572Z,11.79
2022-11-05T14:48:38.797Z,11.72
2022-11-05T14:51:23.850Z,11.70
2022-11-05T14:53:50.702Z,11.69
2022-11-05T14:56:19.004Z,11.67
2022-11-05T14:58:46.846Z,11.65
2022-11-05T15:01:13.755Z,11.60
2022-11-05T15:03:45.985Z,11.59
2022-11-05T15:06:22.523Z,11.56
2022-11-05T15:08:49.422Z,11.54
2022-11-05T15:11:22.129Z,11.53
2022-11-05T15:14:01.164Z,11.53
2022-11-05T15:16:35.311Z,11.53
2022-11-05T15:19:02.599Z,11.52
2022-11-05T15:21:33.234Z,11.52
2022-11-05T15:24:01.935Z,11.48
2022-11-05T15:26:45.573Z,11.52
2022-11-05T15:29:18.866Z,11.50
2022-11-05T15:31:46.281Z,11.48
2022-11-05T15:34:31.859Z,11.47
2022-11-05T15:37:11.983Z,11.44
2022-11-05T15:39:39.644Z,11.39
2022-11-05T15:42:22.876Z,11.36
2022-11-05T15:44:54.640Z,11.30
2022-11-05T15:47:31.561Z,11.28
2022-11-05T15:50:02.501Z,11.24
2022-11-05T15:52:36.573Z,11.18
2022-11-05T15:55:12.863Z,11.10
2022-11-05T15:57:50.265Z,11.07
2022-11-05T16:00:28.915Z,11.00
2022-11-05T16:03:02.163Z,11.03
2022-11-05T16:05:34.849Z,11.00
2022-11-05T16:08:04.325Z,10.98
2022-11-05T16:10:37.739Z,10.97
2022-11-05T16:13:34.817Z,10.95
2022-11-05T16:16:06.860Z,10.92
2022-11-05T16:18:36.162Z,10.85
2022-11-05T16:21:11.158Z,10.73
2022-11-05T16:23:46.583Z,10.62
2022-11-05T16:26:48.048Z,10.62
2022-11-05T16:29:12.998Z,10.67
2022-11-05T16:31:40.287Z,10.63
2022-11-05T16:34:07.157Z,10.65
2022-11-05T16:36:34.355Z,10.65
2022-11-05T16:39:01.388Z,10.60
2022-11-05T16:41:28.422Z,10.53
2022-11-05T16:43:59.718Z,10.47
2022-11-05T16:46:28.795Z,10.45
2022-11-05T16:48:56.389Z,10.44
2022-11-05T16:51:27.202Z,10.47
2022-11-05T16:53:54.426Z,10.52
2022-11-05T16:56:22.472Z,10.48
2022-11-05T16:58:49.771Z,10.50
2022-11-05T17:01:22.387Z,10.44
2022-11-05T17:03:50.826Z,10.43
2022-11-05T17:06:19.346Z,10.34
2022-11-05T17:08:46.788Z,10.36
2022-11-05T17:11:20.183Z,10.41
2022-11-05T17:13:47.431Z,10.48
2022-11-05T17:16:16.914Z,10.37
2022-11-05T17:18:44.297Z,10.38
2022-11-05T17:21:12.646Z,10.34
2022-11-05T17:23:39.705Z,10.38
2022-11-05T17:26:09.203Z,10.27
2022-11-05T17:28:37.839Z,10.29
2022-11-05T17:31:06.731Z,10.33
2022-11-05T17:33:34.613Z,10.33
2022-11-05T17:36:09.022Z,10.39
2022-11-05T17:38:36.387Z,10.34
2022-11-05T17:41:15.824Z,10.26
2022-11-05T17:43:45.904Z,10.32
2022-11-05T17:46:15.518Z,10.34
2022-11-05T17:48:43.093Z,10.35
2022-11-05T17:51:11.182Z,10.41
2022-11-05T17:53:38.197Z,10.38
2022-11-05T17:56:09.595Z,10.32
2022-11-05T17:58:36.769Z,10.25
2022-11-05T18:01:04.490Z,10.23
2022-11-05T18:03:31.792Z,10.19
2022-11-05T18:06:05.904Z,10.13
2022-11-05T18:08:34.091Z,10.06
2022-11-05T18:11:01.062Z,10.10
2022-11-05T18:13:28.223Z,10.01
2022-11-05T18:15:55.334Z,10.02
2022-11-05T18:18:22.405Z,10.04
2022-11-05T18:20:49.686Z,10.06
2022-11-05T18:23:16.713Z,10.01
2022-11-05T18:25:43.775Z,10.03
2022-11-05T18:28:11.075Z,10.04
2022-11-05T18:30:38.899Z,10.04
2022-11-05T18:33:06.225Z,10.06
2022-11-05T18:35:33.387Z,10.04
2022-11-05T18:38:00.413Z,9.97
2022-11-05T18:40:27.721Z,9.95
2022-11-05T18:42:54.792Z,9.99
2022-11-05T18:45:25.609Z,10.04
2022-11-05T18:47:55.679Z,10.08
2022-11-05T18:50:23.329Z,10.12
2022-11-05T18:52:50.730Z,10.09
2022-11-05T18:55:18.103Z,10.06
2022-11-05T18:57:45.184Z,10.01
2022-11-05T19:00:14.649Z,10.05
2022-11-05T19:02:41.844Z,10.05
2022-11-05T19:07:56.485Z,10.06
2022-11-05T19:10:23.961Z,10.05
2022-11-05T19:12:50.985Z,9.96
2022-11-05T19:15:18.218Z,9.97
2022-11-05T19:17:45.336Z,9.99
2022-11-05T19:20:12.338Z,9.97
2022-11-05T19:22:39.620Z,9.96
2022-11-05T19:25:07.233Z,10.00
2022-11-05T19:27:35.638Z,9.99
2022-11-05T19:30:03.588Z,9.95
2022-11-05T19:32:30.905Z,9.94
2022-11-05T19:34:57.941Z,9.92
2022-11-05T19:37:25.026Z,9.97
2022-11-05T19:39:52.436Z,9.94
2022-11-05T19:42:19.570Z,9.99
2022-11-05T19:44:47.131Z,9.99
2022-11-05T19:47:13.930Z,9.98
2022-11-05T19:49:41.275Z,9.99
2022-11-05T19:52:08.389Z,9.96
2022-11-05T19:54:35.993Z,9.98
2022-11-05T19:57:02.820Z,9.96
2022-11-05T19:59:29.736Z,9.98
2022-11-05T20:01:56.999Z,9.97
2022-11-05T20:04:24.241Z,9.97
2022-11-05T20:06:51.312Z,9.96
2022-11-05T20:09:23.187Z,9.93
2022-11-05T20:11:53.791Z,9.91
2022-11-05T20:14:21.005Z,9.95
2022-11-05T20:16:48.841Z,9.96
2022-11-05T20:19:19.418Z,9.96
2022-11-05T20:21:46.676Z,9.98
2022-11-05T20:24:22.328Z,10.01
2022-11-05T20:26:51.865Z,10.00
2022-11-05T20:29:18.980Z,9.98
2022-11-05T20:31:46.167Z,9.99
2022-11-05T20:34:13.218Z,10.05
2022-11-05T20:36:41.312Z,10.09
2022-11-05T20:39:08.400Z,10.07
2022-11-05T20:41:36.088Z,10.05
2022-11-05T20:44:03.123Z,10.07
2022-11-05T20:46:30.229Z,10.09
2022-11-05T20:48:57.438Z,10.08
2022-11-05T20:51:25.351Z,10.07
2022-11-05T20:53:57.607Z,10.06
2022-11-05T20:56:27.316Z,10.01
2022-11-05T20:58:57.915Z,9.99
2022-11-05T21:01:26.473Z,9.96
2022-11-05T21:03:53.781Z,9.94
2022-11-05T21:06:20.772Z,9.96
2022-11-05T21:08:49.015Z,9.96
2022-11-05T21:11:17.161Z,9.96
2022-11-05T21:13:44.238Z,9.90
2022-11-05T21:16:16.854Z,9.95
2022-11-05T21:18:45.480Z,9.94
2022-11-05T21:21:15.587Z,9.93
2022-11-05T21:23:43.024Z,9.95
2022-11-05T21:26:12.421Z,9.96
2022-11-05T21:28:41.017Z,9.97
2022-11-05T21:31:08.798Z,9.99
2022-11-05T21:33:36.027Z,9.97
2022-11-05T21:36:08.633Z,9.91
2022-11-05T21:38:36.009Z,9.94
2022-11-05T21:41:04.271Z,9.97
2022-11-05T21:43:31.741Z,9.99
2022-11-05T21:46:02.804Z,10.00
2022-11-05T21:48:29.943Z,9.99
2022-11-05T21:51:15.364Z,9.96
2022-11-05T21:54:00.841Z,10.00
2022-11-05T21:56:46.726Z,9.99
2022-11-05T21:59:34.704Z,10.00
2022-11-05T22:02:02.460Z,10.05
2022-11-05T22:04:37.866Z,10.00
2022-11-05T22:07:05.961Z,10.02
2022-11-05T22:09:33.069Z,10.05
2022-11-05T22:12:00.236Z,10.05
2022-11-05T22:14:27.324Z,10.05
2022-11-05T22:16:54.838Z,10.00
2022-11-05T22:19:22.583Z,10.09
2022-11-05T22:21:49.676Z,10.11
2022-11-05T22:24:16.822Z,10.02
2022-11-05T22:26:44.561Z,10.10
2022-11-05T22:29:12.090Z,10.13
2022-11-05T22:31:39.262Z,10.20
2022-11-05T22:34:06.484Z,10.17
2022-11-05T22:36:34.457Z,10.18
2022-11-05T22:39:01.776Z,10.10
2022-11-05T22:41:29.043Z,10.19
2022-11-05T22:43:56.033Z,10.21
2022-11-05T22:46:24.260Z,10.20
2022-11-05T22:48:51.289Z,10.10
2022-11-05T22:51:23.972Z,10.06
2022-11-05T22:53:51.151Z,10.09
2022-11-05T22:56:20.576Z,10.02
2022-11-05T22:58:47.896Z,10.05
2022-11-05T23:01:18.644Z,9.97
2022-11-05T23:03:46.990Z,9.92
2022-11-05T23:06:37.626Z,10.00
2022-11-05T23:09:25.456Z,9.93
2022-11-05T23:11:53.727Z,9.98
2022-11-05T23:14:20.590Z,10.03
2022-11-05T23:17:06.038Z,9.99
2022-11-05T23:19:51.657Z,9.99
2022-11-05T23:22:43.429Z,10.00
2022-11-05T23:25:12.996Z,9.98
2022-11-05T23:27:40.848Z,9.97
2022-11-05T23:30:14.303Z,9.98
2022-11-05T23:32:41.268Z,9.93
2022-11-05T23:35:08.696Z,9.96
2022-11-05T23:37:54.606Z,9.99
2022-11-05T23:40:26.903Z,10.00
2022-11-05T23:43:12.955Z,10.05
2022-11-05T23:45:57.453Z,10.06
2022-11-05T23:48:34.510Z,10.04
2022-11-05T23:51:05.197Z,10.05
2022-11-05T23:53:33.760Z,10.02
2022-11-05T23:56:03.136Z,9.99
2022-11-05T23:58:30.391Z,9.99
